Time;durP1;ratioP1;P1;durP2;ratioP2;P2;SDS_P1;SDS_P2;PMS_P1;PMS_P2;Temp;Humidity;BMP_temperature;BMP_pressure;BME280_temperature;BME280_humidity;BME280_pressure;Samples;Min_cycle;Max_cycle;Signal;HPM_P1;HPM_P2
2023/03/10 00:01:31;;;;;;;0.20;0.20;;;10.80;99.90;;;;;;5026124;28;20539;-70
2023/03/10 00:04:00;;;;;;;0.30;0.30;;;10.90;99.90;;;;;;5027240;28;20701;-70
2023/03/10 00:06:31;;;;;;;0.10;0.10;;;10.90;99.90;;;;;;5027440;28;20431;-70
2023/03/10 00:08:58;;;;;;;0.20;0.20;;;10.90;99.90;;;;;;5028284;28;20430;-70
2023/03/10 00:11:25;;;;;;;0.20;0.20;;;10.90;99.90;;;;;;5027631;28;20496;-71
2023/03/10 00:13:52;;;;;;;0.30;0.30;;;10.80;99.90;;;;;;5026631;28;20806;-71
2023/03/10 00:16:25;;;;;;;0.20;0.20;;;10.80;99.90;;;;;;5028104;28;20526;-70
2023/03/10 00:18:52;;;;;;;0.20;0.20;;;10.80;99.90;;;;;;5022305;28;20456;-70
2023/03/10 00:21:22;;;;;;;0.17;0.17;;;10.80;99.90;;;;;;5020986;28;20925;-70
2023/03/10 00:23:49;;;;;;;0.30;0.30;;;10.70;99.90;;;;;;5016342;28;20434;-70
2023/03/10 00:26:18;;;;;;;0.10;0.10;;;10.70;99.90;;;;;;5022136;28;20433;-70
2023/03/10 00:28:45;;;;;;;0.10;0.10;;;10.70;99.90;;;;;;5019757;28;20450;-70
2023/03/10 00:31:23;;;;;;;0.20;0.20;;;10.70;99.90;;;;;;5024512;28;20901;-70
2023/03/10 00:33:51;;;;;;;4.70;0.20;;;10.70;99.90;;;;;;5025689;28;20439;-70
2023/03/10 00:36:21;;;;;;;0.20;0.20;;;10.70;99.90;;;;;;5023155;28;20434;-70
2023/03/10 00:38:49;;;;;;;1.58;0.30;;;10.70;99.90;;;;;;5027677;28;20491;-70
2023/03/10 00:41:18;;;;;;;0.22;0.22;;;10.70;99.90;;;;;;5031547;28;20502;-71
2023/03/10 00:43:46;;;;;;;0.10;0.10;;;10.70;99.90;;;;;;5021116;28;20448;-70
2023/03/10 00:46:16;;;;;;;0.15;0.15;;;10.70;99.90;;;;;;5029013;28;20433;-70
2023/03/10 00:48:44;;;;;;;0.10;0.10;;;10.60;99.90;;;;;;5030302;28;20427;-70
2023/03/10 00:51:11;;;;;;;0.13;0.13;;;10.60;99.90;;;;;;5029116;28;20441;-70
2023/03/10 00:53:39;;;;;;;0.65;0.22;;;10.60;99.90;;;;;;5029389;28;20435;-71
2023/03/10 00:56:13;;;;;;;0.10;0.10;;;10.60;99.90;;;;;;5028674;28;20442;-71
2023/03/10 00:58:44;;;;;;;0.28;0.28;;;10.60;99.90;;;;;;5022107;28;20462;-70
2023/03/10 01:01:14;;;;;;;0.13;0.13;;;10.60;99.90;;;;;;5019386;28;20467;-70
2023/03/10 01:03:41;;;;;;;1.00;0.30;;;10.60;99.90;;;;;;5021853;28;20458;-70
2023/03/10 01:06:09;;;;;;;0.20;0.20;;;10.60;99.90;;;;;;5030958;28;20431;-70
2023/03/10 01:08:38;;;;;;;0.20;0.20;;;10.60;99.90;;;;;;5026682;28;20450;-70
2023/03/10 01:11:05;;;;;;;2.90;0.10;;;10.60;99.90;;;;;;5029771;28;20434;-70
2023/03/10 01:13:32;;;;;;;0.30;0.30;;;10.60;99.90;;;;;;5027407;28;20518;-70
2023/03/10 01:16:05;;;;;;;0.57;0.22;;;10.60;99.90;;;;;;5025756;28;20507;-70
2023/03/10 01:18:32;;;;;;;0.10;0.10;;;10.60;99.90;;;;;;5029524;28;20470;-70
2023/03/10 01:21:02;;;;;;;0.30;0.30;;;10.60;99.90;;;;;;5029432;28;20430;-71
2023/03/10 01:23:29;;;;;;;0.20;0.20;;;10.60;99.90;;;;;;5028729;28;20430;-71
2023/03/10 01:25:56;;;;;;;0.10;0.10;;;10.60;99.90;;;;;;5030416;28;20435;-71
2023/03/10 01:28:23;;;;;;;0.20;0.20;;;10.50;99.90;;;;;;5031092;28;20431;-70
2023/03/10 01:30:50;;;;;;;0.20;0.20;;;10.50;99.90;;;;;;5032368;28;20426;-71
2023/03/10 01:33:17;;;;;;;0.20;0.20;;;10.50;99.90;;;;;;5028681;28;20794;-70
2023/03/10 01:35:44;;;;;;;0.10;0.10;;;10.50;99.90;;;;;;5028483;28;20442;-70
2023/03/10 01:38:11;;;;;;;0.10;0.10;;;10.50;99.90;;;;;;5029475;28;20442;-70
2023/03/10 01:40:39;;;;;;;0.20;0.20;;;10.40;99.90;;;;;;5031672;28;20517;-70
2023/03/10 01:43:26;;;;;;;0.10;0.10;;;10.40;99.90;;;;;;5019551;28;20625;-70
2023/03/10 01:46:00;;;;;;;0.20;0.20;;;10.40;99.90;;;;;;5027020;28;20505;-70
2023/03/10 01:48:34;;;;;;;0.20;0.20;;;10.40;99.90;;;;;;5030194;28;21106;-70
2023/03/10 01:51:02;;;;;;;0.10;0.10;;;10.40;99.90;;;;;;5031355;28;20922;-70
2023/03/10 01:53:32;;;;;;;0.33;0.33;;;10.40;99.90;;;;;;5028853;28;20434;-70
2023/03/10 01:56:03;;;;;;;0.20;0.20;;;10.40;99.90;;;;;;5022025;28;20516;-70
2023/03/10 01:58:40;;;;;;;0.10;0.10;;;10.40;99.90;;;;;;5029335;28;20489;-70
2023/03/10 02:01:07;;;;;;;0.10;0.10;;;10.40;99.90;;;;;;5030872;28;21037;-70
2023/03/10 02:03:50;;;;;;;0.20;0.20;;;10.50;99.90;;;;;;5029063;28;20894;-70
2023/03/10 02:06:19;;;;;;;0.20;0.20;;;10.40;99.90;;;;;;5023440;28;20431;-70
2023/03/10 02:09:02;;;;;;;0.20;0.20;;;10.40;99.90;;;;;;5023309;28;20431;-70
2023/03/10 02:11:29;;;;;;;2.90;0.25;;;10.40;99.90;;;;;;5027338;28;20513;-70
2023/03/10 02:13:56;;;;;;;0.10;0.10;;;10.50;99.90;;;;;;5024813;28;20819;-70
2023/03/10 02:16:25;;;;;;;0.20;0.20;;;10.40;99.90;;;;;;5028090;28;20431;-70
2023/03/10 02:18:52;;;;;;;0.17;0.17;;;10.40;99.90;;;;;;5022458;28;20435;-72
2023/03/10 02:21:48;;;;;;;0.10;0.10;;;10.40;99.90;;;;;;5027997;28;20426;-71
2023/03/10 02:24:44;;;;;;;0.20;0.20;;;10.40;99.90;;;;;;5030594;28;20958;-71
2023/03/10 02:27:17;;;;;;;0.30;0.20;;;10.40;99.90;;;;;;5013968;28;20447;-71
2023/03/10 02:29:52;;;;;;;0.25;0.25;;;10.40;99.90;;;;;;5023444;28;20995;-71
2023/03/10 02:32:28;;;;;;;0.13;0.13;;;10.30;99.90;;;;;;5024404;28;20768;-70
2023/03/10 02:34:54;;;;;;;0.85;0.25;;;10.30;99.90;;;;;;5024678;28;20965;-71
2023/03/10 02:37:25;;;;;;;0.30;0.30;;;10.30;99.90;;;;;;5023583;28;20444;-71
2023/03/10 02:39:51;;;;;;;0.10;0.10;;;10.20;99.90;;;;;;5026364;28;20489;-70
2023/03/10 02:42:19;;;;;;;0.20;0.10;;;10.20;99.90;;;;;;5028868;28;20431;-71
2023/03/10 02:44:47;;;;;;;0.40;0.30;;;10.20;99.90;;;;;;5029236;28;20418;-70
2023/03/10 02:47:15;;;;;;;0.20;0.20;;;10.20;99.90;;;;;;5023695;28;20432;-70
2023/03/10 02:49:42;;;;;;;0.20;0.20;;;10.20;99.90;;;;;;5023562;28;20451;-70
2023/03/10 02:52:43;;;;;;;0.90;0.30;;;10.00;99.90;;;;;;5028902;28;20914;-71
2023/03/10 02:55:17;;;;;;;0.10;0.10;;;9.90;99.90;;;;;;5025174;28;20434;-71
2023/03/10 02:57:44;;;;;;;0.15;0.15;;;9.90;99.90;;;;;;5020878;28;20434;-71
2023/03/10 03:00:11;;;;;;;0.60;0.60;;;9.90;99.90;;;;;;5027453;28;20519;-71
2023/03/10 03:02:38;;;;;;;0.20;0.20;;;10.00;99.90;;;;;;5024600;28;20474;-70
2023/03/10 03:05:06;;;;;;;0.20;0.20;;;10.00;99.90;;;;;;5021157;28;20778;-70
2023/03/10 03:07:33;;;;;;;0.20;0.20;;;10.00;99.90;;;;;;5023055;28;20910;-71
2023/03/10 03:10:00;;;;;;;1.40;0.40;;;10.00;99.90;;;;;;5023220;28;20459;-70
2023/03/10 03:12:26;;;;;;;0.10;0.10;;;10.00;99.90;;;;;;5028017;28;20427;-70
2023/03/10 03:14:53;;;;;;;0.30;0.30;;;10.00;99.90;;;;;;5028829;28;20993;-71
2023/03/10 03:17:20;;;;;;;0.10;0.10;;;10.00;99.90;;;;;;5029100;28;20457;-71
2023/03/10 03:19:46;;;;;;;0.15;0.15;;;10.10;99.90;;;;;;5024799;28;20485;-71
2023/03/10 03:22:13;;;;;;;0.10;0.10;;;10.10;99.90;;;;;;5026671;28;20458;-74
2023/03/10 03:24:40;;;;;;;0.30;0.30;;;10.10;99.90;;;;;;5021373;28;20509;-71
2023/03/10 03:27:07;;;;;;;3.20;0.50;;;10.10;99.90;;;;;;5028804;28;20488;-71
2023/03/10 03:29:33;;;;;;;1.20;0.20;;;10.10;99.90;;;;;;5018427;28;20429;-71
2023/03/10 03:32:00;;;;;;;0.10;0.10;;;10.00;99.90;;;;;;5029592;28;20514;-71
2023/03/10 03:34:27;;;;;;;0.40;0.40;;;10.00;99.90;;;;;;5027200;28;20431;-71
2023/03/10 03:36:54;;;;;;;0.17;0.17;;;9.90;99.90;;;;;;5029504;28;20507;-71
2023/03/10 03:39:21;;;;;;;0.20;0.20;;;9.80;99.90;;;;;;5026295;28;20437;-71
2023/03/10 03:41:51;;;;;;;0.20;0.20;;;9.60;99.90;;;;;;5013654;28;20436;-71
2023/03/10 03:44:18;;;;;;;0.20;0.20;;;9.30;99.90;;;;;;5012171;28;20436;-71
2023/03/10 03:46:45;;;;;;;0.20;0.20;;;9.10;99.90;;;;;;5029083;28;20423;-71
2023/03/10 03:49:12;;;;;;;0.30;0.30;;;9.00;99.90;;;;;;5026385;28;20431;-71
2023/03/10 03:51:39;;;;;;;0.30;0.30;;;9.00;99.90;;;;;;5028082;28;20506;-71
2023/03/10 03:54:06;;;;;;;0.22;0.22;;;9.10;99.90;;;;;;5025203;28;20496;-71
2023/03/10 03:56:32;;;;;;;0.25;0.25;;;9.10;99.90;;;;;;5015976;28;20451;-71
2023/03/10 03:58:59;;;;;;;0.17;0.17;;;9.30;99.90;;;;;;5019412;28;20462;-71
2023/03/10 04:01:26;;;;;;;0.20;0.20;;;9.30;99.90;;;;;;5022838;28;20495;-71
2023/03/10 04:03:52;;;;;;;0.20;0.20;;;9.40;99.90;;;;;;5026376;28;20779;-71
2023/03/10 04:06:19;;;;;;;0.10;0.10;;;9.40;99.90;;;;;;5023587;28;20447;-71
2023/03/10 04:08:49;;;;;;;0.10;0.10;;;9.50;99.90;;;;;;5028747;28;20442;-71
2023/03/10 04:11:15;;;;;;;0.20;0.20;;;9.50;99.90;;;;;;5025849;28;20427;-71
2023/03/10 04:13:42;;;;;;;0.20;0.20;;;9.60;99.90;;;;;;5026058;28;20435;-71
2023/03/10 04:16:09;;;;;;;0.13;0.13;;;9.60;99.90;;;;;;5016864;28;21194;-71
2023/03/10 04:18:36;;;;;;;0.20;0.20;;;9.70;99.90;;;;;;5021468;28;20435;-71
2023/03/10 04:21:03;;;;;;;0.20;0.20;;;9.70;99.90;;;;;;5026200;28;21150;-71
2023/03/10 04:23:29;;;;;;;0.30;0.30;;;9.80;99.90;;;;;;5022855;28;20435;-71
2023/03/10 04:25:56;;;;;;;0.40;0.40;;;9.80;99.90;;;;;;5026529;28;20457;-71
2023/03/10 04:28:23;;;;;;;0.45;0.30;;;9.80;99.90;;;;;;5025114;28;20506;-71
2023/03/10 04:30:50;;;;;;;0.30;0.30;;;9.80;99.90;;;;;;5023426;28;20462;-71
2023/03/10 04:33:20;;;;;;;0.10;0.10;;;9.80;99.90;;;;;;5020051;28;20526;-71
2023/03/10 04:35:47;;;;;;;2.80;0.30;;;9.70;99.90;;;;;;5025511;28;20937;-70
2023/03/10 04:38:14;;;;;;;0.30;0.30;;;9.70;99.90;;;;;;5017217;28;20994;-70
2023/03/10 04:40:42;;;;;;;3.50;0.30;;;9.60;99.90;;;;;;5018503;28;20439;-70
2023/03/10 04:43:09;;;;;;;0.22;0.20;;;9.60;99.90;;;;;;5026691;28;20464;-70
2023/03/10 04:45:36;;;;;;;0.50;0.30;;;9.60;99.90;;;;;;5021858;28;20687;-70
2023/03/10 04:48:04;;;;;;;0.25;0.25;;;9.60;99.90;;;;;;5028796;28;20785;-70
2023/03/10 04:50:31;;;;;;;0.37;0.37;;;9.50;99.90;;;;;;5021074;28;20655;-70
2023/03/10 04:52:58;;;;;;;2.10;0.40;;;9.60;99.90;;;;;;5024938;28;20438;-70
2023/03/10 04:55:25;;;;;;;0.60;0.40;;;9.50;99.90;;;;;;5025797;28;20798;-70
2023/03/10 04:57:51;;;;;;;0.20;0.20;;;9.50;99.90;;;;;;5022657;28;21290;-70
2023/03/10 05:00:18;;;;;;;0.25;0.25;;;9.60;99.90;;;;;;5026867;28;20449;-70
2023/03/10 05:02:45;;;;;;;0.20;0.20;;;9.60;99.90;;;;;;5024329;28;20518;-70
2023/03/10 05:05:12;;;;;;;0.20;0.20;;;9.60;99.90;;;;;;5022133;28;20962;-70
2023/03/10 05:07:39;;;;;;;0.20;0.20;;;9.60;99.90;;;;;;5022122;28;20561;-70
2023/03/10 05:10:07;;;;;;;0.30;0.30;;;9.50;99.90;;;;;;5027565;28;20423;-70
2023/03/10 05:12:33;;;;;;;0.20;0.20;;;9.50;99.90;;;;;;5028529;28;20431;-70
2023/03/10 05:15:00;;;;;;;0.50;0.30;;;9.50;99.90;;;;;;5025310;28;20429;-70
2023/03/10 05:17:28;;;;;;;0.20;0.20;;;9.50;99.90;;;;;;5025010;28;20510;-70
2023/03/10 05:19:56;;;;;;;0.22;0.22;;;9.40;99.90;;;;;;5029635;28;20439;-70
2023/03/10 05:22:23;;;;;;;0.20;0.20;;;9.50;99.90;;;;;;5019484;28;20438;-70
2023/03/10 05:24:50;;;;;;;0.30;0.30;;;9.60;99.90;;;;;;5029338;28;20435;-70
2023/03/10 05:27:18;;;;;;;0.20;0.20;;;9.60;99.90;;;;;;5027940;28;20485;-70
2023/03/10 05:29:46;;;;;;;0.43;0.40;;;9.70;99.90;;;;;;5022525;28;20428;-70
2023/03/10 05:32:13;;;;;;;0.80;0.30;;;9.70;99.90;;;;;;5031644;28;20442;-70
2023/03/10 05:34:39;;;;;;;0.50;0.28;;;9.60;99.90;;;;;;5031785;28;20875;-70
2023/03/10 05:37:06;;;;;;;0.70;0.35;;;9.50;99.90;;;;;;5022003;28;20434;-70
2023/03/10 05:39:33;;;;;;;0.10;0.10;;;9.40;99.90;;;;;;5031821;28;20905;-71
2023/03/10 05:42:00;;;;;;;0.20;0.20;;;9.30;99.90;;;;;;5030619;28;20448;-70
2023/03/10 05:44:26;;;;;;;0.20;0.20;;;9.20;99.90;;;;;;5026128;28;20429;-70
2023/03/10 05:46:53;;;;;;;0.30;0.30;;;9.20;99.90;;;;;;5032570;28;20507;-70
2023/03/10 05:49:20;;;;;;;1.40;0.70;;;9.20;99.90;;;;;;5031688;28;20557;-70
2023/03/10 05:51:47;;;;;;;0.20;0.20;;;9.10;99.90;;;;;;5033199;28;21021;-70
2023/03/10 05:54:15;;;;;;;0.77;0.77;;;9.10;99.90;;;;;;5029751;28;20458;-70
2023/03/10 05:56:42;;;;;;;0.52;0.22;;;9.10;99.90;;;;;;5016955;28;20438;-70
2023/03/10 05:59:09;;;;;;;0.15;0.15;;;9.10;99.90;;;;;;5020031;28;20431;-71
2023/03/10 06:01:36;;;;;;;0.30;0.30;;;9.10;99.90;;;;;;5023446;28;20473;-71
2023/03/10 06:04:03;;;;;;;0.30;0.30;;;9.10;99.90;;;;;;5025477;28;20449;-70
2023/03/10 06:06:32;;;;;;;0.20;0.20;;;9.10;99.90;;;;;;5022090;28;20435;-70
2023/03/10 06:09:00;;;;;;;3.50;0.68;;;9.00;99.90;;;;;;5026736;28;20427;-71
2023/03/10 06:11:27;;;;;;;0.10;0.10;;;9.00;99.90;;;;;;5025413;28;20473;-71
2023/03/10 06:13:54;;;;;;;0.15;0.15;;;8.90;99.90;;;;;;5029732;28;20844;-71
2023/03/10 06:16:21;;;;;;;0.40;0.40;;;8.90;99.90;;;;;;5031704;28;20431;-71
2023/03/10 06:18:52;;;;;;;0.20;0.20;;;8.90;99.90;;;;;;5029336;28;20489;-71
2023/03/10 06:21:19;;;;;;;0.30;0.30;;;8.90;99.90;;;;;;5020690;28;20512;-71
2023/03/10 06:23:46;;;;;;;0.17;0.17;;;8.80;99.90;;;;;;5022070;28;20480;-71
2023/03/10 06:26:15;;;;;;;0.30;0.30;;;8.80;99.90;;;;;;5032255;28;20438;-72
2023/03/10 06:28:43;;;;;;;6.60;0.80;;;8.70;99.90;;;;;;5026611;28;20438;-72
2023/03/10 06:31:36;;;;;;;0.22;0.22;;;8.60;99.90;;;;;;5019937;28;20435;-73
2023/03/10 06:34:03;;;;;;;0.40;0.40;;;8.50;99.90;;;;;;5025216;28;20443;-72
2023/03/10 06:36:31;;;;;;;0.40;0.30;;;8.50;99.90;;;;;;5029360;28;20459;-74
2023/03/10 06:38:58;;;;;;;0.20;0.20;;;8.50;99.90;;;;;;5023425;28;20439;-73
2023/03/10 06:41:26;;;;;;;0.45;0.45;;;8.50;99.90;;;;;;5025057;28;20439;-72
2023/03/10 06:43:56;;;;;;;3.90;0.25;;;8.40;99.90;;;;;;5025675;28;20431;-73
2023/03/10 06:46:24;;;;;;;0.10;0.10;;;8.40;99.90;;;;;;5030167;28;20526;-72
2023/03/10 06:48:51;;;;;;;0.13;0.13;;;8.40;99.90;;;;;;5026046;28;20504;-72
2023/03/10 06:51:19;;;;;;;1.30;0.40;;;8.40;99.90;;;;;;5029904;28;20458;-72
2023/03/10 06:53:46;;;;;;;0.40;0.40;;;8.40;99.90;;;;;;5016938;28;20430;-72
2023/03/10 06:56:16;;;;;;;0.43;0.43;;;8.40;99.90;;;;;;5018795;28;21143;-70
2023/03/10 06:58:44;;;;;;;0.30;0.30;;;8.50;99.90;;;;;;5025804;28;20517;-73
2023/03/10 07:01:31;;;;;;;6.90;0.40;;;8.50;99.90;;;;;;5023065;28;20955;-72
2023/03/10 07:04:00;;;;;;;0.40;0.40;;;8.60;99.90;;;;;;5027143;28;20435;-73
2023/03/10 07:06:27;;;;;;;0.10;0.10;;;8.60;99.90;;;;;;5026450;28;20423;-72
2023/03/10 07:08:54;;;;;;;0.70;0.30;;;8.60;99.90;;;;;;5015271;28;20435;-72
2023/03/10 07:11:21;;;;;;;0.10;0.10;;;8.60;99.90;;;;;;5022983;28;20427;-74
2023/03/10 07:13:49;;;;;;;0.70;0.50;;;8.60;99.90;;;;;;5023068;28;20432;-72
2023/03/10 07:16:19;;;;;;;0.10;0.10;;;8.70;99.90;;;;;;5022502;28;20467;-74
2023/03/10 07:18:47;;;;;;;0.70;0.30;;;8.80;99.90;;;;;;5029587;28;20928;-73
2023/03/10 07:21:18;;;;;;;0.13;0.13;;;8.90;99.90;;;;;;5018720;28;20432;-73
2023/03/10 07:23:47;;;;;;;0.20;0.20;;;9.00;99.90;;;;;;5020622;28;20437;-71
2023/03/10 07:26:20;;;;;;;1.30;0.22;;;9.10;99.90;;;;;;5021948;28;20438;-74
2023/03/10 07:28:47;;;;;;;0.63;0.63;;;9.10;99.90;;;;;;5025392;28;20819;-73
2023/03/10 07:31:16;;;;;;;3.10;0.50;;;9.30;99.90;;;;;;5024283;28;20458;-71
2023/03/10 07:33:43;;;;;;;0.10;0.10;;;9.40;99.90;;;;;;5024009;28;20447;-73
2023/03/10 07:36:13;;;;;;;2.20;0.20;;;9.70;99.90;;;;;;5026502;28;20434;-73
2023/03/10 07:38:44;;;;;;;0.30;0.30;;;9.80;99.90;;;;;;5022233;28;20435;-74
2023/03/10 07:41:18;;;;;;;2.60;0.30;;;9.70;99.90;;;;;;5020089;28;20432;-73
2023/03/10 07:43:51;;;;;;;0.30;0.30;;;9.70;99.90;;;;;;5017690;28;20465;-72
2023/03/10 07:46:19;;;;;;;2.80;0.52;;;9.50;99.90;;;;;;5039347;28;20786;-71
2023/03/10 07:48:46;;;;;;;0.63;0.63;;;9.40;99.90;;;;;;5018190;28;21599;-71
2023/03/10 07:51:13;;;;;;;0.20;0.13;;;9.30;99.90;;;;;;5022824;28;20517;-71
2023/03/10 07:53:40;;;;;;;0.52;0.32;;;9.10;99.90;;;;;;5028063;28;20526;-71
2023/03/10 07:56:09;;;;;;;2.70;0.40;;;9.00;99.90;;;;;;5027500;28;20442;-70
2023/03/10 07:58:36;;;;;;;0.10;0.10;;;8.90;99.90;;;;;;5026907;28;20439;-69
2023/03/10 08:01:04;;;;;;;0.10;0.10;;;8.70;99.90;;;;;;5020117;28;20428;-70
2023/03/10 08:03:32;;;;;;;0.90;0.70;;;8.60;99.90;;;;;;5026441;28;20625;-70
2023/03/10 08:06:01;;;;;;;0.60;0.30;;;8.50;99.90;;;;;;5019290;28;20437;-70
2023/03/10 08:08:28;;;;;;;0.90;0.20;;;8.50;99.90;;;;;;5025268;28;20996;-72
2023/03/10 08:11:08;;;;;;;0.10;0.10;;;8.40;99.90;;;;;;5022513;28;20428;-70
2023/03/10 08:13:35;;;;;;;0.80;0.20;;;8.30;99.90;;;;;;5023868;28;20952;-72
2023/03/10 08:16:06;;;;;;;1.70;0.20;;;8.30;99.90;;;;;;5021560;28;20438;-70
2023/03/10 08:18:33;;;;;;;0.22;0.22;;;8.30;99.90;;;;;;5027688;28;20461;-70
2023/03/10 08:21:05;;;;;;;0.20;0.20;;;8.30;99.90;;;;;;5026698;28;20969;-70
2023/03/10 08:23:33;;;;;;;0.45;0.45;;;8.30;99.90;;;;;;5026871;28;20439;-70
2023/03/10 08:26:09;;;;;;;0.20;0.20;;;8.40;99.90;;;;;;5019769;28;20494;-70
2023/03/10 08:28:37;;;;;;;0.20;0.20;;;8.50;99.90;;;;;;5016907;28;20431;-70
2023/03/10 08:31:12;;;;;;;0.20;0.20;;;8.60;99.90;;;;;;5020550;28;20808;-71
2023/03/10 08:33:40;;;;;;;0.40;0.40;;;8.80;99.90;;;;;;5025183;28;20435;-70
2023/03/10 08:36:19;;;;;;;0.20;0.20;;;8.90;99.90;;;;;;5029906;28;20535;-70
2023/03/10 08:38:46;;;;;;;0.20;0.20;;;9.00;99.90;;;;;;5028990;28;21069;-71
2023/03/10 08:41:44;;;;;;;0.30;0.30;;;9.10;99.90;;;;;;5028888;28;20433;-70
2023/03/10 08:44:14;;;;;;;1.10;0.60;;;9.30;99.90;;;;;;5020585;28;20446;-71
2023/03/10 08:46:43;;;;;;;0.17;0.17;;;9.50;99.90;;;;;;5023362;28;20438;-71
2023/03/10 08:49:14;;;;;;;0.10;0.10;;;9.60;99.90;;;;;;5021083;28;20426;-71
2023/03/10 08:51:41;;;;;;;0.10;0.10;;;9.70;99.90;;;;;;5024930;28;20485;-71
2023/03/10 08:54:11;;;;;;;0.20;0.20;;;9.90;99.90;;;;;;5020725;28;20482;-70
2023/03/10 08:56:38;;;;;;;1.60;0.30;;;10.00;99.90;;;;;;5025757;28;20430;-71
2023/03/10 08:59:05;;;;;;;0.70;0.20;;;;;;;;;;5025541;28;20423;-70
2023/03/10 09:01:35;;;;;;;0.10;0.10;;;10.30;99.90;;;;;;5025816;28;20513;-71
2023/03/10 09:04:04;;;;;;;0.10;0.10;;;11.00;99.90;;;;;;5024092;28;21460;-71
2023/03/10 09:06:31;;;;;;;0.17;0.17;;;11.30;99.90;;;;;;5024239;28;20513;-71
2023/03/10 09:08:58;;;;;;;0.28;0.28;;;11.40;99.90;;;;;;5021569;28;20437;-70
2023/03/10 09:11:30;;;;;;;0.20;0.20;;;11.40;99.90;;;;;;5024566;28;20432;-70
2023/03/10 09:13:58;;;;;;;0.80;0.20;;;11.10;99.90;;;;;;5027621;28;20446;-70
2023/03/10 09:16:25;;;;;;;0.40;0.30;;;10.90;99.90;;;;;;5023015;28;20443;-66
2023/03/10 09:18:52;;;;;;;0.50;0.50;;;10.60;99.90;;;;;;5023758;28;20436;-70
2023/03/10 09:21:19;;;;;;;0.60;0.30;;;10.40;99.90;;;;;;5029691;28;20434;-70
2023/03/10 09:23:47;;;;;;;0.47;0.47;;;;;;;;;;5017259;28;20545;-70
2023/03/10 09:26:14;;;;;;;0.20;0.20;;;10.30;99.90;;;;;;5026003;28;20449;-70
2023/03/10 09:28:41;;;;;;;1.20;0.60;;;10.00;99.90;;;;;;5020218;28;20502;-70
2023/03/10 09:31:10;;;;;;;0.60;0.40;;;9.90;99.90;;;;;;5013888;28;20506;-70
2023/03/10 09:33:40;;;;;;;0.40;0.30;;;9.80;99.90;;;;;;5021074;28;20489;-70
2023/03/10 09:36:07;;;;;;;0.17;0.17;;;9.80;99.90;;;;;;5026266;28;20462;-70
2023/03/10 09:38:35;;;;;;;0.20;0.20;;;9.80;99.90;;;;;;5020570;28;20534;-71
2023/03/10 09:41:28;;;;;;;1.20;0.20;;;9.90;99.90;;;;;;5020434;28;20446;-70
2023/03/10 09:44:29;;;;;;;0.35;0.35;;;10.20;99.90;;;;;;5025001;28;20496;-71
2023/03/10 09:47:19;;;;;;;0.20;0.20;;;10.80;99.90;;;;;;5030443;28;20771;-71
2023/03/10 09:50:20;;;;;;;3.50;0.20;;;11.20;99.90;;;;;;5024477;28;20477;-71
2023/03/10 09:53:17;;;;;;;0.30;0.30;;;11.20;99.90;;;;;;5022986;28;20443;-71
2023/03/10 09:55:44;;;;;;;1.00;0.20;;;10.90;99.90;;;;;;5027018;28;20425;-71
2023/03/10 09:58:31;;;;;;;0.60;0.60;;;10.80;99.90;;;;;;5016443;28;24550;-70
2023/03/10 10:01:00;;;;;;;2.03;0.45;;;10.80;99.90;;;;;;5025490;28;20433;-71
2023/03/10 10:03:51;;;;;;;0.30;0.30;;;10.60;99.90;;;;;;5022989;28;20430;-71
2023/03/10 10:06:25;;;;;;;0.35;0.35;;;10.50;99.90;;;;;;5027710;28;20431;-71
2023/03/10 10:09:06;;;;;;;2.92;0.20;;;10.60;99.90;;;;;;5028441;28;20446;-70
2023/03/10 10:11:36;;;;;;;0.30;0.30;;;10.80;99.90;;;;;;5040906;28;20429;-71
2023/03/10 10:14:17;;;;;;;3.80;0.30;;;;;;;;;;5030153;28;20431;-71
2023/03/10 10:17:18;;;;;;;6.00;1.15;;;;;;;;;;5020320;28;20431;-71
2023/03/10 10:19:47;;;;;;;1.40;0.30;;;;;;;;;;5015629;28;20430;-71
2023/03/10 10:22:14;;;;;;;0.10;0.10;;;11.20;99.90;;;;;;5025952;28;21025;-71
2023/03/10 10:24:41;;;;;;;0.22;0.22;;;;;;;;;;5021521;28;20438;-71
2023/03/10 10:27:09;;;;;;;0.10;0.10;;;;;;;;;;5029211;28;20426;-71
2023/03/10 10:29:37;;;;;;;0.20;0.20;;;;;;;;;;5024807;28;20434;-70
2023/03/10 10:32:10;;;;;;;0.10;0.10;;;12.60;99.90;;;;;;5014973;28;20428;-71
2023/03/10 10:34:44;;;;;;;0.13;0.13;;;;;;;;;;5021752;28;20428;-71
2023/03/10 10:37:27;;;;;;;0.10;0.10;;;;;;;;;;5029716;28;20453;-70
2023/03/10 10:39:55;;;;;;;0.25;0.25;;;;;;;;;;5024398;28;20809;-71
2023/03/10 10:42:24;;;;;;;0.10;0.10;;;;;;;;;;5018197;28;20434;-71
2023/03/10 10:44:55;;;;;;;0.20;0.20;;;;;;;;;;5022270;28;20434;-71
2023/03/10 10:47:29;;;;;;;0.60;0.33;;;;;;;;;;5032186;28;20446;-70
2023/03/10 10:50:28;;;;;;;0.20;0.20;;;;;;;;;;5022167;28;20437;-71
2023/03/10 10:53:14;;;;;;;0.10;0.10;;;;;;;;;;4996988;28;20452;-70
2023/03/10 10:55:43;;;;;;;0.10;0.10;;;;;;;;;;5005476;28;20436;-70
2023/03/10 10:58:29;;;;;;;0.10;0.10;;;;;;;;;;5002540;28;20456;-70
2023/03/10 11:01:01;;;;;;;0.20;0.20;;;;;;;;;;4997482;28;20516;-70
2023/03/10 11:03:34;;;;;;;0.13;0.13;;;;;;;;;;4993646;28;20459;-70
2023/03/10 11:06:23;;;;;;;0.70;0.20;;;12.10;99.90;;;;;;4999733;28;20531;-70
2023/03/10 11:08:51;;;;;;;0.28;0.28;;;;;;;;;;4999356;28;21002;-71
2023/03/10 11:11:28;;;;;;;0.28;0.28;;;;;;;;;;5000858;28;20487;-71
2023/03/10 11:14:01;;;;;;;2.50;0.30;;;;;;;;;;4997227;28;20545;-71
2023/03/10 11:16:31;;;;;;;0.13;0.13;;;;;;;;;;4999087;28;20440;-71
2023/03/10 11:19:01;;;;;;;0.20;0.20;;;;;;;;;;5004684;28;20445;-71
2023/03/10 11:21:31;;;;;;;0.20;0.20;;;;;;;;;;4997998;28;20437;-71
2023/03/10 11:24:10;;;;;;;0.10;0.10;;;;;;;;;;4980146;28;20525;-71
2023/03/10 11:26:41;;;;;;;0.80;0.30;;;;;;;;;;5002891;28;20440;-71
2023/03/10 11:29:26;;;;;;;0.32;0.32;;;;;;;;;;5014022;28;20461;-71
2023/03/10 11:32:08;;;;;;;0.25;0.13;;;;;;;;;;5025608;28;20446;-70
2023/03/10 11:34:39;;;;;;;0.10;0.10;;;;;;;;;;5024677;28;20504;-70
2023/03/10 11:37:28;;;;;;;0.20;0.20;;;;;;;;;;5022649;28;20534;-71
2023/03/10 11:40:18;;;;;;;0.15;0.15;;;;;;;;;;5021847;28;20434;-70
2023/03/10 11:42:54;;;;;;;0.20;0.20;;;;;;;;;;5013068;28;20963;-71
2023/03/10 11:45:22;;;;;;;0.03;0.03;;;;;;;;;;5016366;28;21161;-71
2023/03/10 11:47:49;;;;;;;0.10;0.10;;;;;;;;;;5022375;28;20786;-70
2023/03/10 11:50:32;;;;;;;0.10;0.10;;;;;;;;;;5022543;28;20481;-71
2023/03/10 11:53:06;;;;;;;0.10;0.10;;;;;;;;;;5023346;28;20441;-70
2023/03/10 11:55:33;;;;;;;0.10;0.10;;;;;;;;;;5024533;28;20431;-70
2023/03/10 11:58:03;;;;;;;0.10;0.10;;;;;;;;;;5021689;28;20538;-70
2023/03/10 12:00:33;;;;;;;0.30;0.20;;;;;;;;;;5027577;28;20514;-71
2023/03/10 12:03:26;;;;;;;0.20;0.20;;;;;;;;;;5025629;28;20432;-70
2023/03/10 12:06:01;;;;;;;0.10;0.10;;;;;;;;;;5018191;28;20540;-71
2023/03/10 12:08:34;;;;;;;0.10;0.10;;;;;;;;;;5021049;28;20434;-71
2023/03/10 12:11:02;;;;;;;0.17;0.17;;;;;;;;;;5020965;28;20590;-70
2023/03/10 12:13:42;;;;;;;0.10;0.10;;;;;;;;;;5023345;28;20427;-71
2023/03/10 12:16:13;;;;;;;0.30;0.30;;;;;;;;;;5021233;28;20544;-71
2023/03/10 12:18:41;;;;;;;0.33;0.30;;;;;;;;;;5018966;28;20440;-71
2023/03/10 12:21:12;;;;;;;1.40;0.20;;;;;;;;;;5019845;28;20445;-67
2023/03/10 12:23:44;;;;;;;2.70;0.30;;;;;;;;;;5019233;28;20931;-69
2023/03/10 12:26:11;;;;;;;0.00;0.00;;;;;;;;;;5021199;28;20800;-69
2023/03/10 12:28:38;;;;;;;0.20;0.20;;;;;;;;;;5023370;28;20426;-69
2023/03/10 12:31:09;;;;;;;0.20;0.20;;;;;;;;;;5017140;28;20443;-68
2023/03/10 12:33:36;;;;;;;1.30;0.30;;;;;;;;;;5020746;28;20439;-69
2023/03/10 12:36:08;;;;;;;0.22;0.22;;;;;;;;;;5021130;28;20439;-68
2023/03/10 12:38:49;;;;;;;0.10;0.10;;;;;;;;;;5018619;28;20448;-70
2023/03/10 12:41:25;;;;;;;0.17;0.17;;;;;;;;;;5018135;28;20478;-70
2023/03/10 12:44:03;;;;;;;0.10;0.10;;;;;;;;;;5019498;28;20434;-70
2023/03/10 12:46:38;;;;;;;0.13;0.13;;;;;;;;;;5013910;28;20480;-70
2023/03/10 12:49:13;;;;;;;0.20;0.20;;;;;;;;;;5021675;28;20444;-69
2023/03/10 12:51:42;;;;;;;0.20;0.20;;;;;;;;;;5019380;28;20438;-70
2023/03/10 12:54:22;;;;;;;0.10;0.10;;;;;;;;;;5020135;28;20441;-70
2023/03/10 12:56:58;;;;;;;0.10;0.10;;;;;;;;;;5018068;28;20517;-69
2023/03/10 12:59:31;;;;;;;0.10;0.10;;;;;;;;;;5011614;28;20437;-69
2023/03/10 13:01:59;;;;;;;0.10;0.10;;;;;;;;;;5022436;28;20431;-69
2023/03/10 13:04:27;;;;;;;0.20;0.20;;;;;;;;;;5019335;28;20565;-69
2023/03/10 13:06:55;;;;;;;0.10;0.10;;;;;;;;;;5017306;28;20504;-70
2023/03/10 13:09:27;;;;;;;0.10;0.10;;;;;;;;;;5018109;28;20427;-69
2023/03/10 13:12:13;;;;;;;0.30;0.10;;;;;;;;;;5013557;28;20438;-70
2023/03/10 13:14:41;;;;;;;0.10;0.10;;;;;;;;;;5012861;28;20426;-69
2023/03/10 13:17:38;;;;;;;0.10;0.10;;;;;;;;;;5020220;28;22182;-70
2023/03/10 13:20:07;;;;;;;0.40;0.40;;;;;;;;;;5021358;28;20448;-70
2023/03/10 13:22:35;;;;;;;0.20;0.20;;;;;;;;;;5017836;28;20436;-70
2023/03/10 13:25:03;;;;;;;0.10;0.10;;;;;;;;;;5017058;28;20438;-70
2023/03/10 13:27:32;;;;;;;0.10;0.10;;;;;;;;;;5021383;28;21190;-69
2023/03/10 13:30:06;;;;;;;2.25;0.28;;;;;;;;;;5020000;28;20422;-70
2023/03/10 13:32:33;;;;;;;0.10;0.10;;;;;;;;;;5021905;28;21078;-70
2023/03/10 13:35:13;;;;;;;0.10;0.10;;;;;;;;;;5018006;28;20422;-70
2023/03/10 13:37:40;;;;;;;0.10;0.10;;;;;;;;;;5011454;28;22185;-72